createdAt,value
2022-12-31T00:01:08.618Z,11.61
2022-12-31T00:03:35.009Z,11.55
2022-12-31T00:06:01.385Z,11.66
2022-12-31T00:08:27.833Z,11.68
2022-12-31T00:10:54.140Z,11.69
2022-12-31T00:13:21.452Z,11.75
2022-12-31T00:15:47.716Z,11.70
2022-12-31T00:18:13.983Z,11.76
2022-12-31T00:20:41.848Z,11.85
2022-12-31T00:23:10.011Z,11.88
2022-12-31T00:25:36.549Z,11.91
2022-12-31T00:28:04.918Z,11.96
2022-12-31T00:30:31.501Z,11.92
2022-12-31T00:32:57.835Z,11.95
2022-12-31T00:35:24.102Z,11.83
2022-12-31T00:37:52.307Z,11.96
2022-12-31T00:40:18.576Z,12.05
2022-12-31T00:42:44.856Z,12.06
2022-12-31T00:45:11.307Z,12.09
2022-12-31T00:47:37.812Z,12.04
2022-12-31T00:50:04.483Z,12.20
2022-12-31T00:52:30.739Z,12.24
2022-12-31T00:54:58.015Z,12.27
2022-12-31T00:57:24.301Z,12.30
2022-12-31T00:59:50.542Z,12.28
2022-12-31T01:02:17.016Z,12.34
2022-12-31T01:04:44.493Z,12.41
2022-12-31T01:07:10.898Z,12.44
2022-12-31T01:09:37.190Z,12.49
2022-12-31T01:12:03.732Z,12.49
2022-12-31T01:14:32.511Z,12.53
2022-12-31T01:16:58.807Z,12.65
2022-12-31T01:19:29.208Z,12.60
2022-12-31T01:21:56.257Z,12.60
2022-12-31T01:24:23.081Z,12.66
2022-12-31T01:26:50.725Z,12.71
2022-12-31T01:29:17.048Z,12.73
2022-12-31T01:31:43.495Z,12.79
2022-12-31T01:34:09.814Z,12.74
2022-12-31T01:36:37.021Z,12.82
2022-12-31T01:39:05.584Z,12.79
2022-12-31T01:41:35.385Z,12.80
2022-12-31T01:44:24.566Z,12.87
2022-12-31T01:46:58.159Z,12.93
2022-12-31T01:49:58.142Z,12.90
2022-12-31T01:52:30.283Z,12.95
2022-12-31T01:55:03.285Z,12.93
2022-12-31T01:57:30.711Z,13.07
2022-12-31T01:59:59.573Z,13.10
2022-12-31T02:02:26.212Z,13.16
2022-12-31T02:04:57.650Z,13.21
2022-12-31T02:07:24.485Z,13.22
2022-12-31T02:09:51.733Z,13.09
2022-12-31T02:12:18.051Z,13.06
2022-12-31T02:14:48.631Z,13.15
2022-12-31T02:17:43.092Z,13.06
2022-12-31T02:20:25.104Z,13.11
2022-12-31T02:23:33.394Z,13.11
2022-12-31T02:26:08.416Z,13.28
2022-12-31T02:28:53.793Z,13.29
2022-12-31T02:31:26.077Z,13.33
2022-12-31T02:34:00.530Z,13.32
2022-12-31T02:36:32.521Z,13.31
2022-12-31T02:38:59.379Z,13.26
2022-12-31T02:41:44.080Z,13.40
2022-12-31T02:44:30.055Z,13.44
2022-12-31T02:47:19.188Z,13.52
2022-12-31T02:50:04.247Z,13.62
2022-12-31T02:52:48.903Z,13.70
2022-12-31T02:55:24.824Z,13.70
2022-12-31T02:58:10.345Z,13.76
2022-12-31T03:01:00.896Z,13.72
2022-12-31T03:03:27.703Z,13.73
2022-12-31T03:05:56.327Z,13.72
2022-12-31T03:08:24.862Z,13.76
2022-12-31T03:10:51.463Z,13.77
2022-12-31T03:13:17.900Z,13.80
2022-12-31T03:15:44.200Z,13.73
2022-12-31T03:18:13.820Z,13.74
2022-12-31T03:21:01.847Z,13.83
2022-12-31T03:23:42.575Z,13.85
2022-12-31T03:26:11.548Z,13.91
2022-12-31T03:28:47.489Z,13.87
2022-12-31T03:31:14.085Z,13.87
2022-12-31T03:33:41.621Z,13.82
2022-12-31T03:36:14.684Z,13.83
2022-12-31T03:38:41.327Z,13.94
2022-12-31T03:41:10.705Z,13.99
2022-12-31T03:43:37.036Z,13.94
2022-12-31T03:46:03.438Z,14.00
2022-12-31T03:48:29.769Z,13.96
2022-12-31T03:50:56.091Z,13.89
2022-12-31T03:53:22.530Z,13.97
2022-12-31T03:55:55.201Z,13.99
2022-12-31T03:58:21.905Z,13.97
2022-12-31T04:00:48.985Z,13.98
2022-12-31T04:03:15.411Z,13.97
2022-12-31T04:05:41.752Z,14.01
2022-12-31T04:08:08.080Z,14.10
2022-12-31T04:10:34.436Z,13.99
2022-12-31T04:13:04.168Z,14.02
2022-12-31T04:15:30.449Z,14.00
2022-12-31T04:17:56.845Z,13.97
2022-12-31T04:20:23.147Z,14.08
2022-12-31T04:22:49.516Z,14.02
2022-12-31T04:25:15.964Z,14.07
2022-12-31T04:27:43.482Z,14.09
2022-12-31T04:30:10.763Z,14.06
2022-12-31T04:32:37.070Z,14.04
2022-12-31T04:35:03.656Z,14.01
2022-12-31T04:37:29.960Z,13.97
2022-12-31T04:40:01.878Z,14.02
2022-12-31T04:42:31.646Z,13.94
2022-12-31T04:44:57.942Z,14.05
2022-12-31T04:47:24.306Z,14.03
2022-12-31T04:49:50.707Z,14.05
2022-12-31T04:52:17.035Z,14.15
2022-12-31T04:54:43.343Z,14.08
2022-12-31T04:57:09.654Z,14.21
2022-12-31T04:59:35.972Z,14.17
2022-12-31T05:02:02.433Z,14.18
2022-12-31T05:04:29.260Z,14.25
2022-12-31T05:06:55.590Z,14.22
2022-12-31T05:09:24.115Z,14.32
2022-12-31T05:11:50.537Z,14.20
2022-12-31T05:14:17.140Z,14.26
2022-12-31T05:16:43.466Z,14.23
2022-12-31T05:19:09.933Z,14.25
2022-12-31T05:21:36.433Z,14.36
2022-12-31T05:24:02.832Z,14.46
2022-12-31T05:26:29.135Z,14.44
2022-12-31T05:28:56.464Z,14.36
2022-12-31T05:31:22.876Z,14.35
2022-12-31T05:33:49.143Z,14.29
2022-12-31T05:36:15.717Z,14.39
2022-12-31T05:38:42.171Z,14.41
2022-12-31T05:41:08.531Z,14.38
2022-12-31T05:43:34.976Z,14.38
2022-12-31T05:46:02.973Z,14.33
2022-12-31T05:48:29.949Z,14.39
2022-12-31T05:50:56.273Z,14.37
2022-12-31T05:53:22.782Z,14.30
2022-12-31T05:55:49.303Z,14.38
2022-12-31T05:58:16.113Z,14.40
2022-12-31T06:00:42.515Z,14.45
2022-12-31T06:03:09.793Z,14.46
2022-12-31T06:05:39.399Z,14.40
2022-12-31T06:08:05.726Z,14.58
2022-12-31T06:10:31.996Z,14.60
2022-12-31T06:12:58.259Z,14.60
2022-12-31T06:15:24.667Z,14.67
2022-12-31T06:17:50.990Z,14.63
2022-12-31T06:20:17.756Z,14.58
2022-12-31T06:22:44.077Z,14.57
2022-12-31T06:25:10.598Z,14.62
2022-12-31T06:27:36.929Z,14.59
2022-12-31T06:30:03.456Z,14.61
2022-12-31T06:32:29.812Z,14.69
2022-12-31T06:34:56.118Z,14.72
2022-12-31T06:37:22.386Z,14.75
2022-12-31T06:39:48.900Z,14.82
2022-12-31T06:42:15.191Z,14.83
2022-12-31T06:44:41.529Z,14.85
2022-12-31T06:47:07.941Z,14.81
2022-12-31T06:49:34.223Z,14.83
2022-12-31T06:52:00.593Z,14.86
2022-12-31T06:54:26.889Z,14.82
2022-12-31T06:56:53.526Z,14.80
2022-12-31T06:59:29.137Z,14.87
2022-12-31T07:02:20.524Z,14.89
2022-12-31T07:04:52.694Z,14.99
2022-12-31T07:07:40.343Z,14.98
2022-12-31T07:10:35.396Z,15.11
2022-12-31T07:13:36.164Z,15.06
2022-12-31T07:16:11.371Z,15.07
2022-12-31T07:18:49.556Z,15.13
2022-12-31T07:21:19.123Z,15.11
2022-12-31T07:23:45.731Z,15.11
2022-12-31T07:26:40.839Z,15.12
2022-12-31T07:29:19.377Z,15.08
2022-12-31T07:32:20.284Z,15.16
2022-12-31T07:35:08.401Z,15.16
2022-12-31T07:37:53.290Z,15.12
2022-12-31T07:40:28.907Z,15.13
2022-12-31T07:43:31.821Z,15.16
2022-12-31T07:46:15.792Z,15.12
2022-12-31T07:48:42.499Z,15.10
2022-12-31T07:51:10.772Z,15.07
2022-12-31T07:53:37.687Z,15.02
2022-12-31T07:56:07.142Z,15.02
2022-12-31T07:58:39.438Z,15.02
2022-12-31T08:01:12.555Z,15.00
2022-12-31T08:03:54.624Z,15.02
2022-12-31T08:06:31.304Z,15.00
2022-12-31T08:09:25.793Z,15.01
2022-12-31T08:11:59.918Z,14.93
2022-12-31T08:14:28.432Z,14.94
2022-12-31T08:16:55.879Z,14.93
2022-12-31T08:19:30.599Z,14.96
2022-12-31T08:22:27.678Z,14.90
2022-12-31T08:25:16.499Z,14.93
2022-12-31T08:28:07.630Z,14.98
2022-12-31T08:31:00.780Z,14.94
2022-12-31T08:33:41.581Z,14.97
2022-12-31T08:36:41.098Z,14.96
2022-12-31T08:39:38.565Z,14.92
2022-12-31T08:42:17.378Z,14.96
2022-12-31T08:44:59.802Z,14.96
2022-12-31T08:47:47.290Z,15.01
2022-12-31T08:50:18.395Z,15.04
2022-12-31T08:52:45.771Z,14.95
2022-12-31T08:55:17.533Z,15.05
2022-12-31T08:58:08.487Z,15.05
2022-12-31T09:00:37.265Z,15.00
2022-12-31T09:03:22.306Z,15.13
2022-12-31T09:05:58.728Z,15.17
2022-12-31T09:08:45.378Z,15.21
2022-12-31T09:11:32.214Z,15.17
2022-12-31T09:14:04.834Z,15.21
2022-12-31T09:17:04.471Z,15.24
2022-12-31T09:19:30.795Z,15.31
2022-12-31T09:21:57.396Z,15.37
2022-12-31T09:24:23.907Z,15.31
2022-12-31T09:27:02.512Z,15.30
2022-12-31T09:29:43.468Z,15.32
2022-12-31T09:32:29.577Z,15.36
2022-12-31T09:35:04.030Z,15.33
2022-12-31T09:37:42.246Z,15.44
2022-12-31T09:40:40.487Z,15.52
2022-12-31T09:43:28.005Z,15.61
2022-12-31T09:46:22.406Z,15.65
2022-12-31T09:49:16.322Z,15.66
2022-12-31T09:51:42.625Z,15.66
2022-12-31T09:54:28.877Z,15.65
2022-12-31T09:57:01.121Z,15.69
2022-12-31T09:59:41.004Z,15.63
2022-12-31T10:02:27.808Z,15.71
2022-12-31T10:05:32.953Z,15.83
2022-12-31T10:08:10.788Z,15.84
2022-12-31T10:10:51.892Z,15.99
2022-12-31T10:13:48.508Z,16.04
2022-12-31T10:16:51.917Z,16.03
2022-12-31T10:19:42.480Z,15.93
2022-12-31T10:22:45.721Z,15.85
2022-12-31T10:25:21.174Z,15.91
2022-12-31T10:28:23.024Z,15.93
2022-12-31T10:31:15.669Z,15.97
2022-12-31T10:34:02.702Z,16.20
2022-12-31T10:36:32.003Z,16.49
2022-12-31T10:39:15.343Z,16.69
2022-12-31T10:42:05.588Z,16.90
2022-12-31T10:44:47.279Z,17.02
2022-12-31T10:47:19.653Z,17.09
2022-12-31T10:50:11.058Z,17.14
2022-12-31T10:52:49.063Z,17.17
2022-12-31T10:55:45.706Z,17.21
2022-12-31T10:58:34.918Z,17.14
2022-12-31T11:01:21.557Z,17.23
2022-12-31T11:04:21.879Z,17.21
2022-12-31T11:07:17.594Z,17.09
2022-12-31T11:10:12.549Z,17.04
2022-12-31T11:12:52.315Z,17.07
2022-12-31T11:15:38.458Z,16.99
2022-12-31T11:18:15.385Z,17.06
2022-12-31T11:21:04.321Z,17.04
2022-12-31T11:24:14.374Z,17.00
2022-12-31T11:26:58.808Z,17.13
2022-12-31T11:29:43.485Z,17.22
2022-12-31T11:32:25.010Z,17.25
2022-12-31T11:34:58.795Z,17.14
2022-12-31T11:37:40.557Z,17.30
2022-12-31T11:40:32.306Z,17.37
2022-12-31T11:43:04.768Z,17.25
2022-12-31T11:45:53.968Z,17.37
2022-12-31T11:48:32.811Z,17.39
2022-12-31T11:51:11.049Z,17.40
2022-12-31T11:53:57.442Z,17.47
2022-12-31T11:56:28.159Z,17.41
2022-12-31T11:58:56.116Z,17.47
2022-12-31T12:01:32.422Z,17.50
2022-12-31T12:03:59.321Z,17.64
2022-12-31T12:06:30.759Z,17.61
2022-12-31T12:09:03.719Z,17.55
2022-12-31T12:11:35.096Z,17.60
2022-12-31T12:14:01.905Z,17.61
2022-12-31T12:16:28.499Z,17.66
2022-12-31T12:19:03.155Z,17.65
2022-12-31T12:21:29.876Z,17.73
2022-12-31T12:24:24.915Z,17.78
2022-12-31T12:26:51.529Z,17.50
2022-12-31T12:29:21.633Z,17.55
2022-12-31T12:31:57.556Z,17.56
2022-12-31T12:34:32.720Z,17.49
2022-12-31T12:37:03.423Z,17.29
2022-12-31T12:39:32.664Z,17.31
2022-12-31T12:42:03.564Z,17.12
2022-12-31T12:44:30.654Z,17.12
2022-12-31T12:46:58.234Z,17.00
2022-12-31T12:49:31.515Z,17.00
2022-12-31T12:52:31.912Z,16.96
2022-12-31T12:55:19.437Z,16.84
2022-12-31T12:58:04.509Z,16.82
2022-12-31T13:01:02.839Z,16.78
2022-12-31T13:04:31.909Z,16.71
2022-12-31T13:06:48.294Z,16.64
2022-12-31T13:09:44.496Z,16.64
2022-12-31T13:12:17.523Z,16.60
2022-12-31T13:15:13.225Z,16.71
2022-12-31T13:17:59.975Z,16.77
2022-12-31T13:20:49.476Z,16.79
2022-12-31T13:23:26.522Z,16.73
2022-12-31T13:26:27.236Z,16.68
2022-12-31T13:28:55.713Z,16.60
2022-12-31T13:31:30.727Z,16.63
2022-12-31T13:34:04.385Z,16.71
2022-12-31T13:36:35.199Z,16.73
2022-12-31T13:39:05.453Z,16.82
2022-12-31T13:41:38.645Z,16.81
2022-12-31T13:44:17.914Z,16.79
2022-12-31T13:46:57.831Z,16.75
2022-12-31T13:49:42.052Z,16.62
2022-12-31T13:52:27.274Z,16.60
2022-12-31T13:55:20.277Z,16.49
2022-12-31T13:57:54.299Z,16.36
2022-12-31T14:00:25.170Z,16.34
2022-12-31T14:03:19.659Z,16.28
2022-12-31T14:05:51.476Z,16.27
2022-12-31T14:08:17.897Z,16.24
2022-12-31T14:11:12.248Z,16.16
2022-12-31T14:13:57.331Z,16.08
2022-12-31T14:16:45.624Z,16.06
2022-12-31T14:19:41.026Z,15.89
2022-12-31T14:22:19.629Z,15.91
2022-12-31T14:24:49.841Z,15.90
2022-12-31T14:27:28.245Z,15.86
2022-12-31T14:29:59.970Z,15.81
2022-12-31T14:32:46.780Z,15.81
2022-12-31T14:35:31.269Z,15.69
2022-12-31T14:38:25.552Z,15.59
2022-12-31T14:41:09.850Z,15.46
2022-12-31T14:43:57.208Z,15.48
2022-12-31T14:46:57.617Z,15.40
2022-12-31T14:49:41.694Z,15.26
2022-12-31T14:52:35.682Z,15.16
2022-12-31T14:55:14.974Z,15.03
2022-12-31T14:58:17.131Z,15.00
2022-12-31T15:00:39.009Z,15.01
2022-12-31T15:03:06.630Z,14.86
2022-12-31T15:05:37.811Z,14.76
2022-12-31T15:08:06.830Z,14.73
2022-12-31T15:10:40.243Z,14.65
2022-12-31T15:13:27.681Z,14.67
2022-12-31T15:16:22.676Z,14.56
2022-12-31T15:19:03.251Z,14.47
2022-12-31T15:21:39.534Z,14.37
2022-12-31T15:24:21.364Z,14.27
2022-12-31T15:27:00.121Z,14.18
2022-12-31T15:29:43.788Z,14.11
2022-12-31T15:32:20.504Z,14.07
2022-12-31T15:34:46.871Z,14.03
2022-12-31T15:37:34.929Z,13.92
2022-12-31T15:40:24.787Z,13.86
2022-12-31T15:43:13.839Z,13.73
2022-12-31T15:45:42.004Z,13.69
2022-12-31T15:48:16.365Z,13.54
2022-12-31T15:50:43.992Z,13.49
2022-12-31T15:53:26.321Z,13.37
2022-12-31T15:55:54.672Z,13.39
2022-12-31T15:58:25.737Z,13.30
2022-12-31T16:01:21.839Z,13.15
2022-12-31T16:04:14.350Z,13.16
2022-12-31T16:06:43.747Z,13.05
2022-12-31T16:09:40.675Z,13.00
2022-12-31T16:12:16.407Z,12.99
2022-12-31T16:14:44.675Z,12.92
2022-12-31T16:17:28.170Z,12.88
2022-12-31T16:19:55.549Z,12.84
2022-12-31T16:22:28.253Z,12.85
2022-12-31T16:27:43.803Z,12.96
2022-12-31T16:30:25.770Z,13.05
2022-12-31T16:33:00.953Z,13.00
2022-12-31T16:35:30.191Z,13.01
2022-12-31T16:38:17.946Z,13.00
2022-12-31T16:41:16.729Z,12.89
2022-12-31T16:43:44.970Z,12.76
2022-12-31T16:46:14.000Z,12.65
2022-12-31T16:48:44.865Z,12.58
2022-12-31T16:51:18.438Z,12.49
2022-12-31T16:53:45.131Z,12.46
2022-12-31T16:56:26.051Z,12.39
2022-12-31T16:58:59.708Z,12.34
2022-12-31T17:01:30.303Z,12.33
2022-12-31T17:04:04.058Z,12.29
2022-12-31T17:06:33.361Z,12.23
2022-12-31T17:09:20.569Z,12.22
2022-12-31T17:11:52.452Z,12.16
2022-12-31T17:14:24.302Z,12.23
2022-12-31T17:17:07.405Z,12.26
2022-12-31T17:19:51.571Z,12.23
2022-12-31T17:22:36.995Z,12.13
2022-12-31T17:25:25.338Z,12.21
2022-12-31T17:28:02.046Z,12.16
2022-12-31T17:30:28.423Z,12.20
2022-12-31T17:33:12.817Z,12.22
2022-12-31T17:35:44.468Z,12.20
2022-12-31T17:38:22.935Z,12.12
2022-12-31T17:40:55.022Z,12.07
2022-12-31T17:43:23.718Z,12.08
2022-12-31T17:45:54.498Z,12.01
2022-12-31T17:48:24.827Z,11.97
2022-12-31T17:50:53.936Z,12.09
2022-12-31T17:53:20.940Z,12.08
2022-12-31T17:55:50.805Z,12.10
2022-12-31T17:58:29.898Z,12.00
2022-12-31T18:00:57.819Z,11.93
2022-12-31T18:03:24.764Z,11.92
2022-12-31T18:05:51.121Z,11.93
2022-12-31T18:08:17.400Z,11.74
2022-12-31T18:10:44.743Z,11.78
2022-12-31T18:13:19.104Z,11.69
2022-12-31T18:15:45.569Z,11.60
2022-12-31T18:18:26.135Z,11.63
2022-12-31T18:20:57.537Z,11.65
2022-12-31T18:23:27.601Z,11.46
2022-12-31T18:25:54.342Z,11.32
2022-12-31T18:28:20.708Z,11.14
2022-12-31T18:30:48.135Z,11.15
2022-12-31T18:33:19.809Z,11.03
2022-12-31T18:36:08.161Z,10.96
2022-12-31T18:38:33.566Z,10.80
2022-12-31T18:41:00.000Z,10.72
2022-12-31T18:43:26.365Z,10.62
2022-12-31T18:45:53.356Z,10.50
2022-12-31T18:48:19.734Z,10.47
2022-12-31T18:50:47.029Z,10.38
2022-12-31T18:53:22.710Z,10.35
2022-12-31T18:55:55.030Z,10.35
2022-12-31T18:58:21.608Z,10.26
2022-12-31T19:00:49.392Z,10.30
2022-12-31T19:03:18.543Z,10.26
2022-12-31T19:05:48.909Z,10.16
2022-12-31T19:08:19.168Z,10.08
2022-12-31T19:10:46.329Z,10.01
2022-12-31T19:13:13.991Z,9.94
2022-12-31T19:15:44.419Z,9.84
2022-12-31T19:18:11.074Z,9.81
2022-12-31T19:20:38.730Z,9.91
2022-12-31T19:23:05.552Z,9.97
2022-12-31T19:25:34.824Z,9.93
2022-12-31T19:28:01.996Z,9.81
2022-12-31T19:30:33.319Z,9.71
2022-12-31T19:33:00.672Z,9.64
2022-12-31T19:35:27.745Z,9.60
2022-12-31T19:37:55.027Z,9.55
2022-12-31T19:40:27.545Z,9.49
2022-12-31T19:42:56.619Z,9.56
2022-12-31T19:45:25.956Z,9.65
2022-12-31T19:47:53.703Z,9.56
2022-12-31T19:50:23.666Z,9.53
2022-12-31T19:52:52.596Z,9.42
2022-12-31T19:55:21.191Z,9.24
2022-12-31T19:57:48.615Z,9.17
2022-12-31T20:00:17.124Z,9.13
2022-12-31T20:02:45.291Z,9.07
2022-12-31T20:05:14.017Z,8.83
2022-12-31T20:07:40.502Z,8.95
2022-12-31T20:10:07.648Z,8.93
2022-12-31T20:12:37.858Z,8.90
2022-12-31T20:15:09.063Z,8.84
2022-12-31T20:17:36.429Z,8.70
2022-12-31T20:20:02.791Z,8.81
2022-12-31T20:22:29.328Z,8.84
2022-12-31T20:24:55.626Z,8.82
2022-12-31T20:27:21.885Z,8.73
2022-12-31T20:29:48.205Z,8.79
2022-12-31T20:32:14.608Z,8.82
2022-12-31T20:34:40.996Z,8.82
2022-12-31T20:37:07.280Z,8.86
2022-12-31T20:39:33.647Z,8.85
2022-12-31T20:41:59.980Z,8.79
2022-12-31T20:44:26.441Z,8.82
2022-12-31T20:46:52.789Z,8.78
2022-12-31T20:49:31.338Z,8.82
2022-12-31T20:52:05.468Z,8.95
2022-12-31T20:54:32.056Z,9.10
2022-12-31T20:57:00.027Z,9.16
2022-12-31T20:59:26.945Z,9.24
2022-12-31T21:02:20.527Z,9.22
2022-12-31T21:04:39.710Z,9.20
2022-12-31T21:07:06.232Z,9.20
2022-12-31T21:09:32.516Z,9.19
2022-12-31T21:12:18.036Z,9.11
2022-12-31T21:14:44.984Z,9.10
2022-12-31T21:17:11.369Z,9.25
2022-12-31T21:19:37.641Z,9.29
2022-12-31T21:22:03.937Z,9.36
2022-12-31T21:24:30.241Z,9.35
2022-12-31T21:26:56.570Z,9.56
2022-12-31T21:29:22.838Z,9.54
2022-12-31T21:31:49.727Z,9.66
2022-12-31T21:34:16.066Z,9.74
2022-12-31T21:36:42.351Z,9.70
2022-12-31T21:39:08.625Z,9.69
2022-12-31T21:41:52.884Z,9.74
2022-12-31T21:44:24.776Z,9.70
2022-12-31T21:47:36.545Z,9.62
2022-12-31T21:50:05.124Z,9.47
2022-12-31T21:52:33.801Z,9.40
2022-12-31T21:55:20.943Z,9.31
2022-12-31T21:58:24.008Z,9.18
2022-12-31T22:00:54.898Z,9.15
2022-12-31T22:03:27.630Z,9.06
2022-12-31T22:06:08.859Z,9.11
2022-12-31T22:08:35.178Z,9.11
2022-12-31T22:11:01.564Z,9.09
2022-12-31T22:13:28.189Z,9.05
2022-12-31T22:16:01.748Z,8.89
2022-12-31T22:18:32.201Z,8.79
2022-12-31T22:21:18.396Z,8.68
2022-12-31T22:23:47.840Z,8.56
2022-12-31T22:26:15.871Z,8.48
2022-12-31T22:28:43.653Z,8.45
2022-12-31T22:31:14.451Z,8.69
2022-12-31T22:33:41.230Z,8.56
2022-12-31T22:36:11.557Z,8.49
2022-12-31T22:38:37.834Z,8.33
2022-12-31T22:41:23.736Z,8.29
2022-12-31T22:43:58.506Z,8.09
2022-12-31T22:46:28.899Z,8.13
2022-12-31T22:48:57.918Z,8.20
2022-12-31T22:51:24.339Z,8.40
2022-12-31T22:53:50.624Z,8.26
2022-12-31T22:56:18.429Z,8.03
2022-12-31T22:58:45.146Z,8.01
2022-12-31T23:01:21.808Z,7.94
2022-12-31T23:03:50.688Z,7.97
2022-12-31T23:06:18.165Z,8.00
2022-12-31T23:09:03.019Z,7.79
2022-12-31T23:11:29.977Z,7.69
2022-12-31T23:14:14.877Z,7.78
2022-12-31T23:16:59.910Z,7.67
2022-12-31T23:20:04.912Z,7.66
2022-12-31T23:22:49.645Z,7.71
2022-12-31T23:25:16.091Z,7.66
2022-12-31T23:27:42.376Z,7.59
2022-12-31T23:30:09.380Z,7.60
2022-12-31T23:32:36.062Z,7.56
2022-12-31T23:35:09.374Z,7.57
2022-12-31T23:37:36.281Z,7.58
2022-12-31T23:40:02.566Z,7.56
2022-12-31T23:42:28.858Z,7.51
2022-12-31T23:44:55.132Z,7.43
2022-12-31T23:47:21.400Z,7.33
2022-12-31T23:49:47.753Z,7.25
2022-12-31T23:52:14.186Z,7.16
2022-12-31T23:54:40.505Z,7.04
2022-12-31T23:57:06.928Z,6.99
2022-12-31T23:59:33.219Z,6.80
